createdAt,value
2022-09-03T00:01:51.907Z,10.48
2022-09-03T00:04:05.180Z,10.88
2022-09-03T00:06:18.809Z,9.38
2022-09-03T00:08:34.741Z,6.50
2022-09-03T00:10:51.853Z,6.70
2022-09-03T00:13:03.924Z,6.22
2022-09-03T00:15:13.743Z,5.47
2022-09-03T00:17:23.175Z,5.40
2022-09-03T00:19:34.606Z,5.30
2022-09-03T00:21:50.651Z,5.35
2022-09-03T00:23:58.393Z,5.60
2022-09-03T00:26:12.140Z,4.22
2022-09-03T00:28:25.298Z,4.75
2022-09-03T00:30:33.350Z,5.43
2022-09-03T00:32:48.581Z,4.93
2022-09-03T00:34:59.809Z,5.47
2022-09-03T00:37:14.270Z,5.25
2022-09-03T00:39:24.237Z,4.82
2022-09-03T00:41:40.293Z,5.07
2022-09-03T00:44:14.666Z,5.28
2022-09-03T00:46:30.069Z,4.88
2022-09-03T00:48:48.227Z,5.15
2022-09-03T00:51:11.327Z,5.00
2022-09-03T00:53:30.336Z,5.05
2022-09-03T00:55:49.447Z,5.18
2022-09-03T00:58:08.708Z,5.35
2022-09-03T01:00:20.193Z,6.03
2022-09-03T01:02:36.516Z,5.22
2022-09-03T01:04:54.984Z,5.32
2022-09-03T01:07:08.623Z,5.22
2022-09-03T01:09:34.541Z,5.93
2022-09-03T01:11:48.580Z,5.18
2022-09-03T01:14:07.639Z,5.18
2022-09-03T01:16:27.018Z,5.55
2022-09-03T01:18:42.023Z,6.97
2022-09-03T01:21:06.775Z,6.20
2022-09-03T01:23:47.128Z,6.97
2022-09-03T01:26:08.543Z,5.82
2022-09-03T01:28:33.999Z,5.95
2022-09-03T01:30:48.493Z,5.47
2022-09-03T01:33:04.344Z,5.50
2022-09-03T01:35:18.123Z,5.75
2022-09-03T01:37:35.288Z,5.85
2022-09-03T01:39:50.129Z,5.95
2022-09-03T01:42:20.424Z,6.20
2022-09-03T01:44:45.635Z,5.93
2022-09-03T01:47:00.600Z,5.85
2022-09-03T01:49:16.118Z,5.75
2022-09-03T01:51:25.706Z,5.13
2022-09-03T01:53:47.996Z,5.50
2022-09-03T01:56:12.187Z,5.32
2022-09-03T01:58:25.025Z,5.85
2022-09-03T02:00:36.778Z,5.82
2022-09-03T02:02:45.575Z,5.82
2022-09-03T02:05:03.222Z,5.78
2022-09-03T02:07:10.818Z,5.65
2022-09-03T02:09:18.364Z,5.78
2022-09-03T02:11:25.845Z,5.57
2022-09-03T02:13:39.122Z,5.88
2022-09-03T02:15:48.995Z,5.97
2022-09-03T02:18:01.215Z,6.78
2022-09-03T02:20:13.159Z,6.25
2022-09-03T02:24:28.235Z,6.75
2022-09-03T02:26:35.421Z,6.90
2022-09-03T02:28:43.161Z,6.50
2022-09-03T02:30:51.993Z,6.28
2022-09-03T02:32:59.725Z,6.65
2022-09-03T02:35:06.811Z,6.30
2022-09-03T02:37:18.031Z,6.60
2022-09-03T02:39:25.032Z,6.87
2022-09-03T02:41:32.703Z,6.28
2022-09-03T02:43:45.264Z,7.00
2022-09-03T02:45:57.412Z,7.10
2022-09-03T02:48:04.909Z,6.72
2022-09-03T02:50:13.519Z,7.97
2022-09-03T02:52:20.805Z,9.63
2022-09-03T02:54:27.926Z,8.80
2022-09-03T02:56:35.009Z,7.78
2022-09-03T02:58:42.553Z,8.13
2022-09-03T03:00:50.405Z,8.50
2022-09-03T03:02:59.424Z,8.02
2022-09-03T03:05:07.321Z,8.02
2022-09-03T03:07:14.299Z,6.82
2022-09-03T03:09:21.276Z,6.75
2022-09-03T03:11:28.451Z,6.90
2022-09-03T03:13:36.968Z,6.55
2022-09-03T03:15:44.414Z,7.07
2022-09-03T03:17:51.588Z,7.45
2022-09-03T03:20:00.293Z,7.35
2022-09-03T03:22:07.432Z,6.70
2022-09-03T03:24:15.133Z,6.07
2022-09-03T03:26:25.331Z,6.60
2022-09-03T03:28:35.433Z,6.30
2022-09-03T03:30:44.031Z,6.07
2022-09-03T03:32:51.237Z,6.03
2022-09-03T03:35:00.250Z,5.88
2022-09-03T03:37:07.486Z,6.72
2022-09-03T03:39:14.728Z,5.93
2022-09-03T03:41:23.384Z,6.00
2022-09-03T03:43:30.414Z,5.80
2022-09-03T03:45:37.350Z,5.57
2022-09-03T03:47:44.366Z,5.63
2022-09-03T03:49:51.548Z,5.00
2022-09-03T03:52:00.416Z,5.25
2022-09-03T03:54:07.855Z,4.93
2022-09-03T03:56:16.780Z,4.85
2022-09-03T03:58:23.965Z,5.15
2022-09-03T04:00:31.094Z,4.82
2022-09-03T04:02:39.266Z,4.63
2022-09-03T04:04:46.989Z,4.07
2022-09-03T04:06:54.120Z,4.00
2022-09-03T04:09:03.144Z,4.25
2022-09-03T04:11:12.014Z,4.47
2022-09-03T04:13:19.196Z,4.00
2022-09-03T04:15:26.430Z,4.50
2022-09-03T04:17:33.512Z,4.20
2022-09-03T04:19:40.585Z,4.15
2022-09-03T04:21:48.023Z,4.25
2022-09-03T04:23:56.695Z,4.30
2022-09-03T04:26:05.677Z,4.35
2022-09-03T04:28:13.004Z,3.95
2022-09-03T04:30:21.103Z,4.38
2022-09-03T04:32:44.617Z,4.05
2022-09-03T04:34:51.646Z,5.10
2022-09-03T04:37:00.264Z,4.57
2022-09-03T04:39:07.240Z,4.43
2022-09-03T04:41:17.395Z,4.30
2022-09-03T04:43:24.421Z,4.70
2022-09-03T04:45:31.740Z,4.10
2022-09-03T04:47:39.447Z,4.07
2022-09-03T04:49:46.525Z,4.22
2022-09-03T04:51:54.179Z,4.00
2022-09-03T04:54:02.490Z,4.20
2022-09-03T04:56:18.824Z,4.10
2022-09-03T04:58:26.210Z,4.00
2022-09-03T05:00:34.267Z,4.78
2022-09-03T05:02:41.418Z,4.15
2022-09-03T05:04:48.471Z,3.90
2022-09-03T05:06:55.499Z,3.70
2022-09-03T05:09:03.295Z,3.83
2022-09-03T05:11:11.190Z,3.70
2022-09-03T05:13:20.012Z,3.67
2022-09-03T05:15:27.349Z,3.75
2022-09-03T05:17:37.612Z,3.92
2022-09-03T05:19:44.884Z,3.78
2022-09-03T05:21:52.271Z,3.90
2022-09-03T05:23:59.261Z,3.67
2022-09-03T05:26:10.869Z,3.58
2022-09-03T05:30:27.351Z,4.00
2022-09-03T05:32:35.859Z,3.20
2022-09-03T05:34:43.768Z,3.83
2022-09-03T05:36:51.047Z,3.30
2022-09-03T05:38:58.801Z,3.08
2022-09-03T05:41:06.842Z,3.47
2022-09-03T05:43:13.815Z,3.42
2022-09-03T05:45:23.078Z,3.50
2022-09-03T05:47:30.080Z,3.40
2022-09-03T05:49:37.156Z,3.92
2022-09-03T05:51:44.847Z,3.20
2022-09-03T05:53:52.596Z,3.63
2022-09-03T05:56:01.209Z,3.30
2022-09-03T05:58:08.557Z,3.60
2022-09-03T06:00:16.490Z,3.45
2022-09-03T06:02:25.582Z,4.35
2022-09-03T06:04:32.800Z,4.20
2022-09-03T06:06:41.721Z,3.83
2022-09-03T06:08:52.795Z,4.28
2022-09-03T06:11:02.653Z,4.32
2022-09-03T06:13:09.680Z,4.22
2022-09-03T06:15:16.799Z,5.03
2022-09-03T06:17:25.619Z,4.20
2022-09-03T06:19:32.595Z,4.60
2022-09-03T06:21:44.037Z,4.78
2022-09-03T06:23:55.051Z,4.47
2022-09-03T06:26:07.151Z,4.82
2022-09-03T06:28:14.789Z,4.93
2022-09-03T06:30:21.877Z,5.30
2022-09-03T06:32:31.099Z,5.88
2022-09-03T06:34:38.432Z,4.70
2022-09-03T06:36:45.410Z,4.80
2022-09-03T06:38:55.203Z,5.38
2022-09-03T06:41:05.299Z,5.40
2022-09-03T06:43:12.644Z,5.00
2022-09-03T06:45:19.824Z,5.70
2022-09-03T06:47:27.054Z,5.55
2022-09-03T06:49:35.715Z,4.55
2022-09-03T06:51:44.539Z,5.25
2022-09-03T06:53:52.894Z,5.05
2022-09-03T06:56:01.258Z,5.15
2022-09-03T06:58:08.333Z,5.15
2022-09-03T07:00:16.950Z,5.32
2022-09-03T07:02:24.124Z,4.85
2022-09-03T07:04:31.259Z,4.60
2022-09-03T07:06:41.514Z,4.93
2022-09-03T07:08:49.414Z,4.50
2022-09-03T07:10:56.654Z,4.82
2022-09-03T07:13:03.624Z,5.10
2022-09-03T07:15:11.632Z,4.90
2022-09-03T07:17:19.578Z,5.05
2022-09-03T07:19:26.601Z,5.15
2022-09-03T07:21:35.219Z,4.78
2022-09-03T07:23:44.705Z,5.25
2022-09-03T07:25:58.090Z,5.55
2022-09-03T07:28:06.130Z,5.00
2022-09-03T07:30:14.645Z,5.47
2022-09-03T07:32:21.832Z,6.13
2022-09-03T07:34:28.852Z,5.53
2022-09-03T07:36:39.979Z,5.43
2022-09-03T07:38:50.180Z,5.63
2022-09-03T07:41:02.742Z,5.80
2022-09-03T07:43:09.816Z,6.03
2022-09-03T07:45:16.945Z,6.38
2022-09-03T07:47:27.146Z,6.05
2022-09-03T07:49:34.336Z,6.55
2022-09-03T07:51:42.435Z,6.40
2022-09-03T07:53:51.972Z,6.68
2022-09-03T07:58:12.892Z,6.43
2022-09-03T08:00:20.417Z,6.50
2022-09-03T08:02:27.622Z,5.90
2022-09-03T08:04:35.004Z,5.72
2022-09-03T08:06:43.360Z,5.53
2022-09-03T08:08:52.433Z,5.93
2022-09-03T08:11:00.026Z,4.80
2022-09-03T08:13:07.513Z,5.10
2022-09-03T08:15:14.694Z,5.57
2022-09-03T08:17:21.722Z,5.20
2022-09-03T08:19:29.168Z,5.38
2022-09-03T08:21:36.495Z,5.20
2022-09-03T08:23:44.702Z,5.18
2022-09-03T08:26:00.942Z,4.72
2022-09-03T08:28:08.585Z,4.63
2022-09-03T08:30:15.928Z,4.40
2022-09-03T08:32:24.086Z,4.70
2022-09-03T08:34:31.464Z,5.50
2022-09-03T08:36:41.873Z,4.88
2022-09-03T08:38:51.560Z,5.10
2022-09-03T08:41:11.643Z,4.68
2022-09-03T08:43:21.644Z,4.53
2022-09-03T08:45:31.493Z,4.40
2022-09-03T08:47:44.455Z,4.13
2022-09-03T08:49:57.271Z,4.50
2022-09-03T08:52:10.361Z,4.35
2022-09-03T08:54:18.543Z,4.10
2022-09-03T08:56:31.783Z,4.70
2022-09-03T08:58:43.051Z,4.70
2022-09-03T09:01:02.417Z,4.30
2022-09-03T09:03:30.022Z,4.57
2022-09-03T09:05:47.343Z,4.40
2022-09-03T09:07:58.619Z,5.10
2022-09-03T09:10:13.845Z,5.25
2022-09-03T09:12:41.392Z,4.88
2022-09-03T09:15:00.260Z,5.07
2022-09-03T09:17:21.206Z,5.63
2022-09-03T09:19:41.958Z,5.20
2022-09-03T09:21:55.028Z,5.07
2022-09-03T09:24:07.846Z,5.32
2022-09-03T09:26:18.249Z,4.38
2022-09-03T09:28:29.124Z,4.80
2022-09-03T09:30:37.018Z,4.10
2022-09-03T09:32:44.255Z,4.78
2022-09-03T09:34:52.587Z,5.20
2022-09-03T09:37:00.555Z,5.45
2022-09-03T09:39:13.223Z,5.63
2022-09-03T09:41:23.359Z,4.32
2022-09-03T09:43:35.062Z,3.72
2022-09-03T09:45:43.726Z,3.88
2022-09-03T09:47:52.953Z,4.03
2022-09-03T09:50:01.572Z,4.10
2022-09-03T09:52:13.108Z,4.07
2022-09-03T09:54:22.597Z,4.40
2022-09-03T09:56:30.441Z,4.18
2022-09-03T09:58:40.080Z,4.45
2022-09-03T10:01:02.463Z,4.47
2022-09-03T10:03:15.538Z,3.67
2022-09-03T10:05:26.089Z,4.68
2022-09-03T10:07:34.451Z,3.95
2022-09-03T10:09:41.429Z,3.92
2022-09-03T10:11:52.707Z,3.70
2022-09-03T10:14:01.686Z,4.03
2022-09-03T10:16:16.884Z,3.30
2022-09-03T10:18:34.015Z,3.50
2022-09-03T10:20:50.922Z,3.60
2022-09-03T10:23:01.384Z,3.60
2022-09-03T10:25:09.589Z,3.60
2022-09-03T10:27:19.889Z,3.90
2022-09-03T10:29:30.603Z,4.18
2022-09-03T10:31:49.002Z,3.95
2022-09-03T10:34:02.688Z,4.43
2022-09-03T10:36:21.844Z,4.30
2022-09-03T10:38:33.377Z,3.70
2022-09-03T10:40:45.892Z,3.72
2022-09-03T10:43:03.363Z,4.00
2022-09-03T10:45:21.547Z,4.32
2022-09-03T10:47:44.910Z,3.33
2022-09-03T10:49:59.006Z,3.55
2022-09-03T10:52:12.076Z,4.07
2022-09-03T10:54:39.848Z,3.85
2022-09-03T10:56:55.107Z,3.55
2022-09-03T10:59:13.715Z,3.83
2022-09-03T11:01:31.409Z,3.55
2022-09-03T11:03:51.372Z,4.07
2022-09-03T11:06:04.950Z,3.97
2022-09-03T11:08:16.610Z,4.25
2022-09-03T11:10:30.934Z,4.50
2022-09-03T11:12:41.699Z,5.13
2022-09-03T11:14:53.905Z,5.40
2022-09-03T11:17:09.177Z,6.30
2022-09-03T11:19:20.090Z,6.28
2022-09-03T11:21:31.530Z,6.30
2022-09-03T11:25:53.308Z,7.47
2022-09-03T11:28:12.830Z,7.47
2022-09-03T11:30:27.995Z,6.93
2022-09-03T11:32:55.742Z,6.85
2022-09-03T11:35:03.354Z,7.22
2022-09-03T11:37:22.261Z,6.90
2022-09-03T11:39:39.249Z,7.20
2022-09-03T11:41:46.765Z,7.00
2022-09-03T11:43:54.352Z,6.78
2022-09-03T11:46:14.992Z,7.30
2022-09-03T11:48:40.006Z,6.90
2022-09-03T11:50:56.959Z,7.20
2022-09-03T11:53:14.127Z,7.63
2022-09-03T11:55:43.712Z,8.10
2022-09-03T11:57:51.016Z,7.30
2022-09-03T12:00:10.764Z,7.22
2022-09-03T12:02:34.633Z,7.50
2022-09-03T12:04:51.056Z,5.55
2022-09-03T12:07:14.587Z,6.45
2022-09-03T12:09:52.685Z,5.95
2022-09-03T12:12:10.976Z,6.40
2022-09-03T12:14:23.387Z,6.95
2022-09-03T12:16:50.580Z,7.82
2022-09-03T12:19:04.011Z,7.35
2022-09-03T12:21:14.116Z,6.85
2022-09-03T12:23:32.814Z,7.05
2022-09-03T12:25:46.967Z,6.45
2022-09-03T12:27:54.448Z,6.80
2022-09-03T12:30:04.705Z,7.10
2022-09-03T12:32:15.266Z,7.50
2022-09-03T12:34:24.390Z,7.10
2022-09-03T12:36:42.678Z,7.00
2022-09-03T12:39:10.890Z,7.20
2022-09-03T12:41:32.516Z,6.45
2022-09-03T12:43:42.460Z,7.25
2022-09-03T12:48:20.654Z,6.50
2022-09-03T12:50:28.742Z,6.10
2022-09-03T12:52:39.822Z,6.78
2022-09-03T12:54:51.505Z,6.83
2022-09-03T12:59:10.838Z,7.55
2022-09-03T13:01:20.974Z,8.20
2022-09-03T13:03:35.541Z,7.28
2022-09-03T13:05:48.147Z,8.23
2022-09-03T13:07:59.124Z,8.30
2022-09-03T13:10:10.301Z,9.00
2022-09-03T13:12:27.205Z,8.10
2022-09-03T13:14:48.415Z,8.45
2022-09-03T13:19:22.081Z,8.07
2022-09-03T13:21:38.227Z,8.70
2022-09-03T13:24:01.071Z,8.30
2022-09-03T13:26:21.052Z,7.30
2022-09-03T13:28:41.500Z,7.75
2022-09-03T13:30:58.665Z,7.45
2022-09-03T13:33:10.550Z,7.40
2022-09-03T13:35:26.960Z,7.18
2022-09-03T13:37:42.019Z,7.57
2022-09-03T13:39:55.450Z,6.82
2022-09-03T13:42:10.462Z,7.25
2022-09-03T13:44:23.851Z,7.40
2022-09-03T13:46:36.601Z,6.63
2022-09-03T13:49:01.141Z,7.07
2022-09-03T13:51:14.876Z,7.00
2022-09-03T13:53:28.155Z,7.22
2022-09-03T13:55:48.338Z,7.50
2022-09-03T13:58:02.090Z,7.28
2022-09-03T14:00:12.590Z,7.57
2022-09-03T14:02:30.119Z,8.65
2022-09-03T14:04:50.907Z,8.18
2022-09-03T14:07:05.156Z,7.97
2022-09-03T14:09:19.303Z,8.55
2022-09-03T14:11:33.958Z,8.43
2022-09-03T14:13:55.879Z,7.57
2022-09-03T14:16:11.174Z,7.22
2022-09-03T14:18:35.697Z,7.32
2022-09-03T14:20:48.968Z,7.47
2022-09-03T14:23:01.424Z,7.28
2022-09-03T14:25:15.615Z,6.47
2022-09-03T14:27:32.326Z,6.07
2022-09-03T14:29:40.430Z,5.72
2022-09-03T14:32:18.735Z,6.20
2022-09-03T14:34:39.948Z,5.60
2022-09-03T14:36:55.682Z,5.50
2022-09-03T14:39:19.247Z,5.95
2022-09-03T14:41:49.622Z,5.35
2022-09-03T14:44:36.738Z,5.35
2022-09-03T14:46:57.947Z,5.03
2022-09-03T14:49:29.048Z,5.15
2022-09-03T14:51:56.859Z,5.30
2022-09-03T14:54:35.427Z,4.72
2022-09-03T14:56:52.699Z,5.50
2022-09-03T14:59:22.555Z,5.03
2022-09-03T15:01:38.888Z,4.78
2022-09-03T15:04:11.579Z,4.95
2022-09-03T15:06:31.500Z,4.43
2022-09-03T15:08:55.644Z,3.67
2022-09-03T15:11:05.334Z,3.55
2022-09-03T15:13:18.249Z,3.55
2022-09-03T15:15:31.110Z,2.72
2022-09-03T15:17:58.681Z,3.55
2022-09-03T15:20:22.443Z,3.38
2022-09-03T15:22:50.033Z,3.50
2022-09-03T15:25:07.841Z,3.50
2022-09-03T15:27:27.260Z,3.88
2022-09-03T15:29:49.232Z,3.53
2022-09-03T15:32:04.915Z,3.88
2022-09-03T15:34:27.963Z,3.72
2022-09-03T15:36:42.881Z,4.22
2022-09-03T15:38:56.000Z,3.95
2022-09-03T15:41:08.656Z,4.10
2022-09-03T15:43:22.998Z,3.80
2022-09-03T15:45:39.866Z,4.28
2022-09-03T15:47:57.236Z,4.25
2022-09-03T15:50:11.946Z,4.10
2022-09-03T15:52:34.744Z,4.32
2022-09-03T15:54:49.811Z,4.30
2022-09-03T15:57:02.015Z,4.50
2022-09-03T15:59:18.508Z,3.63
2022-09-03T16:01:38.234Z,3.80
2022-09-03T16:03:53.188Z,3.75
2022-09-03T16:06:06.217Z,2.83
2022-09-03T16:08:22.899Z,2.75
2022-09-03T16:10:45.412Z,2.42
2022-09-03T16:13:03.245Z,2.72
2022-09-03T16:15:16.618Z,2.65
2022-09-03T16:17:30.717Z,2.70
2022-09-03T16:19:45.577Z,2.78
2022-09-03T16:22:01.924Z,3.00
2022-09-03T16:24:19.914Z,2.55
2022-09-03T16:26:34.725Z,2.60
2022-09-03T16:28:48.480Z,3.13
2022-09-03T16:31:08.085Z,3.10
2022-09-03T16:33:24.690Z,2.60
2022-09-03T16:35:45.540Z,3.10
2022-09-03T16:38:15.248Z,2.65
2022-09-03T16:40:29.336Z,2.53
2022-09-03T16:42:44.039Z,2.45
2022-09-03T16:45:02.757Z,2.88
2022-09-03T16:47:18.530Z,3.03
2022-09-03T16:49:46.186Z,2.88
2022-09-03T16:52:00.026Z,2.80
2022-09-03T16:54:28.311Z,2.80
2022-09-03T16:56:53.509Z,3.00
2022-09-03T16:59:09.293Z,2.70
2022-09-03T17:01:24.613Z,2.58
2022-09-03T17:04:00.417Z,2.58
2022-09-03T17:06:25.260Z,3.05
2022-09-03T17:08:43.090Z,2.90
2022-09-03T17:10:57.287Z,3.30
2022-09-03T17:13:22.086Z,3.10
2022-09-03T17:15:47.475Z,3.17
2022-09-03T17:18:20.373Z,3.05
2022-09-03T17:20:41.540Z,2.60
2022-09-03T17:23:01.107Z,2.72
2022-09-03T17:25:11.312Z,2.90
2022-09-03T17:27:48.802Z,2.75
2022-09-03T17:30:12.059Z,2.53
2022-09-03T17:32:32.252Z,2.88
2022-09-03T17:34:55.252Z,2.83
2022-09-03T17:37:11.701Z,2.88
2022-09-03T17:39:52.747Z,2.97
2022-09-03T17:42:08.056Z,2.65
2022-09-03T17:44:22.704Z,3.20
2022-09-03T17:46:38.203Z,2.97
2022-09-03T17:48:54.219Z,2.90
2022-09-03T17:51:07.744Z,2.85
2022-09-03T17:53:27.169Z,3.15
2022-09-03T17:55:39.576Z,3.10
2022-09-03T17:57:51.413Z,2.97
2022-09-03T18:00:05.042Z,3.40
2022-09-03T18:02:33.117Z,3.17
2022-09-03T18:04:49.629Z,2.95
2022-09-03T18:07:03.712Z,3.38
2022-09-03T18:09:14.781Z,2.90
2022-09-03T18:11:30.926Z,3.35
2022-09-03T18:13:52.082Z,2.97
2022-09-03T18:16:08.836Z,3.75
2022-09-03T18:18:23.144Z,3.22
2022-09-03T18:21:03.176Z,3.40
2022-09-03T18:23:40.990Z,3.53
2022-09-03T18:26:07.895Z,3.45
2022-09-03T18:28:35.703Z,3.70
2022-09-03T18:30:58.982Z,3.58
2022-09-03T18:33:24.332Z,3.22
2022-09-03T18:35:51.004Z,3.55
2022-09-03T18:38:15.140Z,3.45
2022-09-03T18:40:42.544Z,3.55
2022-09-03T18:43:14.857Z,3.90
2022-09-03T18:48:42.260Z,3.53
2022-09-03T18:51:11.433Z,3.50
2022-09-03T18:53:55.323Z,3.83
2022-09-03T18:56:28.726Z,4.10
2022-09-03T18:59:02.223Z,3.65
2022-09-03T19:01:31.773Z,4.03
2022-09-03T19:04:09.167Z,4.00
2022-09-03T19:06:46.195Z,3.78
2022-09-03T19:09:17.094Z,4.10
2022-09-03T19:11:50.206Z,4.18
2022-09-03T19:14:24.028Z,4.45
2022-09-03T19:17:02.803Z,4.53
2022-09-03T19:19:47.310Z,4.50
2022-09-03T19:22:15.787Z,4.53
2022-09-03T19:24:43.348Z,4.40
2022-09-03T19:27:45.998Z,3.85
2022-09-03T19:30:20.357Z,4.40
2022-09-03T19:32:50.221Z,4.57
2022-09-03T19:35:29.190Z,4.43
2022-09-03T19:37:59.927Z,4.47
2022-09-03T19:40:50.212Z,4.05
2022-09-03T19:43:23.658Z,4.78
2022-09-03T19:46:04.754Z,4.55
2022-09-03T19:48:39.107Z,4.10
2022-09-03T19:51:15.063Z,4.57
2022-09-03T19:53:39.404Z,4.40
2022-09-03T19:56:07.745Z,4.20
2022-09-03T19:58:43.601Z,4.10
2022-09-03T20:01:08.983Z,4.88
2022-09-03T20:03:34.501Z,5.13
2022-09-03T20:05:58.421Z,5.20
2022-09-03T20:08:24.087Z,5.00
2022-09-03T20:10:30.246Z,5.03
2022-09-03T20:12:42.093Z,4.75
2022-09-03T20:14:49.013Z,4.32
2022-09-03T20:17:11.607Z,4.80
2022-09-03T20:19:27.131Z,4.43
2022-09-03T20:21:42.101Z,4.55
2022-09-03T20:24:03.216Z,4.70
2022-09-03T20:26:22.880Z,4.57
2022-09-03T20:28:54.122Z,4.07
2022-09-03T20:31:06.194Z,4.47
2022-09-03T20:33:47.667Z,4.25
2022-09-03T20:36:06.049Z,3.88
2022-09-03T20:38:34.277Z,3.90
2022-09-03T20:40:49.963Z,4.07
2022-09-03T20:43:40.730Z,4.13
2022-09-03T20:46:04.024Z,3.83
2022-09-03T20:48:22.947Z,4.40
2022-09-03T20:50:44.810Z,4.18
2022-09-03T20:53:05.861Z,4.03
2022-09-03T20:55:20.107Z,4.47
2022-09-03T20:57:41.416Z,3.75
2022-09-03T21:00:04.934Z,4.00
2022-09-03T21:02:20.234Z,3.80
2022-09-03T21:04:43.614Z,4.32
2022-09-03T21:06:59.704Z,3.97
2022-09-03T21:09:27.172Z,4.35
2022-09-03T21:11:43.306Z,4.00
2022-09-03T21:13:58.119Z,4.20
2022-09-03T21:16:24.515Z,4.13
2022-09-03T21:18:40.201Z,3.92
2022-09-03T21:20:53.556Z,4.28
2022-09-03T21:23:13.315Z,4.15
2022-09-03T21:25:26.967Z,4.38
2022-09-03T21:27:38.809Z,4.30
2022-09-03T21:29:50.648Z,4.28
2022-09-03T21:32:06.224Z,4.38
2022-09-03T21:34:20.639Z,5.00
2022-09-03T21:36:33.085Z,4.43
2022-09-03T21:38:42.160Z,4.53
2022-09-03T21:40:54.616Z,4.78
2022-09-03T21:43:11.832Z,4.93
2022-09-03T21:45:28.791Z,5.32
2022-09-03T21:47:41.144Z,5.18
2022-09-03T21:50:14.372Z,4.38
2022-09-03T21:52:29.761Z,4.70
2022-09-03T21:54:37.925Z,4.82
2022-09-03T21:57:01.792Z,4.50
2022-09-03T21:59:11.119Z,4.95
2022-09-03T22:01:27.346Z,4.53
2022-09-03T22:03:34.300Z,4.45
2022-09-03T22:05:58.634Z,4.43
2022-09-03T22:08:15.533Z,4.47
2022-09-03T22:10:28.503Z,4.47
2022-09-03T22:12:45.112Z,4.68
2022-09-03T22:14:56.749Z,5.30
2022-09-03T22:17:12.265Z,5.20
2022-09-03T22:19:19.967Z,5.47
2022-09-03T22:21:35.128Z,5.25
2022-09-03T22:23:56.610Z,5.60
2022-09-03T22:26:09.155Z,5.80
2022-09-03T22:28:25.599Z,5.72
2022-09-03T22:30:39.264Z,6.57
2022-09-03T22:33:03.319Z,6.10
2022-09-03T22:35:29.901Z,6.40
2022-09-03T22:37:53.259Z,6.75
2022-09-03T22:40:16.108Z,6.55
2022-09-03T22:42:51.398Z,6.88
2022-09-03T22:45:16.040Z,6.65
2022-09-03T22:47:33.920Z,7.07
2022-09-03T22:49:53.199Z,7.30
2022-09-03T22:52:12.566Z,7.55
2022-09-03T22:54:34.331Z,8.00
2022-09-03T22:58:56.887Z,7.40
2022-09-03T23:01:13.974Z,7.75
2022-09-03T23:03:27.609Z,7.38
2022-09-03T23:05:43.108Z,7.72
2022-09-03T23:07:57.308Z,8.52
2022-09-03T23:10:08.898Z,8.43
2022-09-03T23:12:21.754Z,9.40
2022-09-03T23:14:32.723Z,9.20
2022-09-03T23:16:43.996Z,9.33
2022-09-03T23:18:52.473Z,9.45
2022-09-03T23:21:09.016Z,9.95
2022-09-03T23:23:21.321Z,9.60
2022-09-03T23:25:33.269Z,9.32
2022-09-03T23:27:45.207Z,9.32
2022-09-03T23:29:56.325Z,9.48
2022-09-03T23:32:06.361Z,9.63
2022-09-03T23:34:14.631Z,9.63
2022-09-03T23:36:57.832Z,9.02
2022-09-03T23:39:06.579Z,8.40
2022-09-03T23:41:21.854Z,8.48
2022-09-03T23:43:50.642Z,10.30
2022-09-03T23:46:06.281Z,11.13
2022-09-03T23:48:26.284Z,9.95
2022-09-03T23:50:41.164Z,10.13
2022-09-03T23:53:20.504Z,9.27
2022-09-03T23:55:38.427Z,8.70
2022-09-03T23:57:53.037Z,9.07
